Notice: iconv(): Detected an illegal character in input string in /home/meteolat/www/weather28/wsLangFunctions.php on line 115

Notice: iconv(): Detected an illegal character in input string in /home/meteolat/www/weather28/wsLangFunctions.php on line 115
Météorologique de l'aéroport - Météo La Turballe

Il s'agit d'un problème de communication. Allez directement sur le site Meteoalarm : www.meteoalarm.eu et vérifier les avertissements météorologiques..


Visitez nos sites météorologiques autres:

Template documentation
and downloads

And another site



Rapports METAR proximité

   
EHVK - Volkel Rnlafb, Netherlands
Distance: SO 18 km
Mise à jour: 11-05-2021 05:25
Nuageux  
Nuageux  
   Vent: Sud 7.4 km/h
Vent: Sud 7.4 km/h
Température: 13°C
Point de rosée: 9°C
Humidité: 77%
Baromètre: 1008 hPa
Nuageux: Nuageux
visibilité: More than 10 km
Détails des nuages: Nuageux 5100 ft
EHVK 110325Z AUTO 18004KT 120V200 9999 OVC051 13/09 Q1008 BLU
EDLV - Niederrhein, Germany
Distance: SE 25 km
Mise à jour: 11-05-2021 05:20
Faible bruine, Partiellement nuageux  
Faible bruine, Partiellement nuageux  
   Vent: ESE 9.3 km/h
Vent: ESE 9.3 km/h
Température: 13°C
Point de rosée: 12°C
Humidité: 94%
Baromètre: 1008 hPa
Nuageux: Partiellement nuageux
visibilité: More than 10 km
Détails des nuages: Partiellement nuageux 3500 ft
EDLV 110320Z 12005KT 9999 -DZ SCT035 13/12 Q1008
EHDL - Deelen Rnlafb, Netherlands
Distance: N 35 km
Mise à jour: 11-05-2021 05:25
Nuageux  
Nuageux  
   Vent: varie 3.7 km/h
Vent: varie 3.7 km/h
Température: 12°C
Point de rosée: 11°C
Humidité: 94%
Baromètre: 1008 hPa
Nuageux: Nuageux
visibilité: More than 10 km
Détails des nuages: Nuageux 7300 ft,
Nuageux 7800 ft
EHDL 110325Z AUTO VRB02KT 9999 BKN073 OVC078 12/11 Q1008 BLU
EHEH - Eindhoven Rnlafb, Netherlands
Distance: SO 48 km
Mise à jour: 11-05-2021 05:25
Nuageux  
Nuageux  
   Vent: SSE 5.6 km/h
Vent: SSE 5.6 km/h
Température: 12°C
Point de rosée: 9°C
Humidité: 82%
Baromètre: 1008 hPa
Nuageux: Nuageux
visibilité: More than 10 km
Détails des nuages: Peu de nuages 7900 ft,
Nuageux 9600 ft
EHEH 110325Z AUTO 16003KT 150V220 9999 FEW079 OVC096 12/09 Q1008 BLU
EHGR - Gilze-Rijen Rnla, Netherlands
Distance: OSO 70 km
Mise à jour: 11-05-2021 05:25
Nuageux  
Nuageux  
   Vent: Sud 1.9 km/h
Vent: Sud 1.9 km/h
Température: 10°C
Point de rosée: 9°C
Humidité: 94%
Baromètre: 1008 hPa
Nuageux: Nuageux
visibilité: More than 10 km
Détails des nuages: Nuageux 9100 ft,
Nuageux 9700 ft
EHGR 110325Z AUTO 19001KT 9999 BKN091 OVC097 10/09 Q1008 BLU
EBBL - Kleine-Brogel(Ba, Belgium
Distance: SSO 71 km
Mise à jour: 11-05-2021 05:25
Nuageux  
Nuageux  
   Vent: varie 1.9 km/h
Vent: varie 1.9 km/h
Température: 13°C
Point de rosée: 10°C
Humidité: 82%
Baromètre: 1008 hPa
Nuageux: Nuageux
visibilité: More than 10 km
Détails des nuages: Nuageux 7400 ft
EBBL 110325Z AUTO VRB01KT 9999 OVC074/// 13/10 Q1008 BLU

Script développé par  Saratoga-weather.org Adapté pour le modèle par  Weerstation Leuven

Équipement que nous utilisons:

Station de Météo
Davis VUE

Davis VUE